Time;durP1;ratioP1;P1;durP2;ratioP2;P2;SDS_P1;SDS_P2;PMS_P1;PMS_P2;Temp;Humidity;BMP_temperature;BMP_pressure;BME280_temperature;BME280_humidity;BME280_pressure;Samples;Min_cycle;Max_cycle;Signal;HPM_P1;HPM_P2
2022/04/10 00:00:03;;;;;;;;;;;2.00;99.90;;;;;;5044769;28;19958;-80
2022/04/10 00:02:28;;;;;;;;;;;2.00;99.90;;;;;;5045313;28;20449;-79
2022/04/10 00:04:54;;;;;;;;;;;2.00;99.90;;;;;;5026697;28;19960;-79
2022/04/10 00:07:19;;;;;;;;;;;2.80;99.90;;;;;;5045524;28;19909;-78
2022/04/10 00:09:45;;;;;;;;;;;2.00;99.90;;;;;;5043622;28;20211;-79
2022/04/10 00:12:11;;;;;;;;;;;2.00;99.90;;;;;;5043005;28;19909;-78
2022/04/10 00:14:36;;;;;;;;;;;2.00;99.90;;;;;;5043399;28;19962;-78
2022/04/10 00:17:02;;;;;;;;;;;2.10;99.90;;;;;;5043155;28;19909;-78
2022/04/10 00:19:28;;;;;;;;;;;1.60;99.90;;;;;;5043368;28;19921;-78
2022/04/10 00:21:53;;;;;;;;;;;2.10;99.90;;;;;;5044469;28;20447;-77
2022/04/10 00:24:20;;;;;;;;;;;2.10;99.90;;;;;;5043928;28;19917;-78
2022/04/10 00:26:45;;;;;;;;;;;2.20;99.90;;;;;;5025233;28;19967;-77
2022/04/10 00:29:11;;;;;;;;;;;2.10;99.90;;;;;;5043801;28;20347;-79
2022/04/10 00:31:37;;;;;;;;;;;2.20;99.90;;;;;;5044504;28;19984;-80
2022/04/10 00:34:02;;;;;;;;;;;2.20;99.90;;;;;;5051414;28;19983;-78
2022/04/10 00:36:28;;;;;;;;;;;2.20;99.90;;;;;;5050937;28;19909;-78
2022/04/10 00:38:53;;;;;;;;;;;2.20;99.90;;;;;;5050672;28;19940;-78
2022/04/10 00:41:20;;;;;;;;;;;1.00;99.90;;;;;;5031285;28;19917;-78
2022/04/10 00:44:02;;;;;;;;;;;2.40;99.90;;;;;;5031502;28;20150;-78
2022/04/10 00:46:28;;;;;;;;;;;2.40;99.90;;;;;;5031088;28;20008;-79
2022/04/10 00:48:54;;;;;;;;;;;2.40;99.90;;;;;;5029764;28;19909;-79
2022/04/10 00:54:04;;;;;;;;;;;2.20;99.90;;;;;;5023243;28;19979;-79
2022/04/10 00:56:30;;;;;;;;;;;2.30;99.90;;;;;;5023730;28;19941;-79
2022/04/10 00:58:55;;;;;;;;;;;2.20;99.90;;;;;;5023425;28;20433;-78
2022/04/10 01:01:21;;;;;;;;;;;2.20;99.90;;;;;;5023139;28;20549;-78
2022/04/10 01:03:46;;;;;;;;;;;2.20;99.90;;;;;;5023066;28;20072;-77
2022/04/10 01:06:13;;;;;;;;;;;2.20;99.90;;;;;;5022768;28;19916;-79
2022/04/10 01:08:41;;;;;;;;;;;2.10;99.90;;;;;;5022287;28;20284;-79
2022/04/10 01:11:06;;;;;;;;;;;2.20;99.90;;;;;;5023233;28;19909;-78
2022/04/10 01:13:32;;;;;;;;;;;2.10;99.90;;;;;;5023512;28;20103;-76
2022/04/10 01:15:58;;;;;;;;;;;2.10;99.90;;;;;;5023832;28;19992;-78
2022/04/10 01:18:23;;;;;;;;;;;2.20;99.90;;;;;;5024751;28;20272;-78
2022/04/10 01:20:49;;;;;;;;;;;2.20;99.90;;;;;;5025259;28;20034;-79
2022/04/10 01:23:15;;;;;;;;;;;2.30;99.90;;;;;;5024604;28;20381;-78
2022/04/10 01:25:41;;;;;;;;;;;2.30;99.90;;;;;;5025821;28;20237;-79
2022/04/10 01:28:13;;;;;;;;;;;2.30;99.90;;;;;;5026350;28;19913;-77
2022/04/10 01:30:39;;;;;;;;;;;2.30;99.90;;;;;;5025574;28;20269;-78
2022/04/10 01:33:07;;;;;;;;;;;2.30;99.90;;;;;;5025743;28;20003;-78
2022/04/10 01:35:34;;;;;;;;;;;2.30;99.90;;;;;;5026215;28;19909;-79
2022/04/10 01:38:04;;;;;;;;;;;1.30;99.90;;;;;;5026985;28;20625;-79
2022/04/10 01:40:30;;;;;;;;;;;2.30;99.90;;;;;;5028751;28;19939;-79
2022/04/10 01:42:55;;;;;;;;;;;2.30;99.90;;;;;;5045778;28;19921;-80
2022/04/10 01:45:21;;;;;;;;;;;2.20;99.90;;;;;;5051250;28;20263;-78
2022/04/10 01:47:49;;;;;;;;;;;2.30;99.90;;;;;;5046367;28;19909;-78
2022/04/10 01:50:16;;;;;;;;;;;2.30;99.90;;;;;;5046737;28;19962;-78
2022/04/10 01:52:41;;;;;;;;;;;2.30;99.90;;;;;;5048413;28;19913;-76
2022/04/10 01:55:09;;;;;;;;;;;2.30;99.90;;;;;;5049492;28;20397;-81
2022/04/10 01:57:35;;;;;;;;;;;2.20;99.90;;;;;;5047985;28;19920;-81
2022/04/10 02:00:00;;;;;;;;;;;2.30;99.90;;;;;;5028372;28;19920;-78
2022/04/10 02:02:26;;;;;;;;;;;2.30;99.90;;;;;;5045099;28;19983;-78
2022/04/10 02:04:52;;;;;;;;;;;2.30;99.90;;;;;;5052408;28;19989;-79
2022/04/10 02:07:17;;;;;;;;;;;2.30;99.90;;;;;;5050221;28;19948;-77
2022/04/10 02:09:43;;;;;;;;;;;2.30;99.90;;;;;;5032068;28;19916;-78
2022/04/10 02:12:09;;;;;;;;;;;3.40;99.90;;;;;;5050401;28;19916;-78
2022/04/10 02:14:35;;;;;;;;;;;2.40;99.90;;;;;;5044165;28;19919;-77
2022/04/10 02:17:00;;;;;;;;;;;2.40;99.90;;;;;;5040810;28;19920;-77
2022/04/10 02:19:26;;;;;;;;;;;2.50;99.90;;;;;;5040124;28;19923;-78
2022/04/10 02:21:51;;;;;;;;;;;2.50;99.90;;;;;;5040345;28;20214;-78
2022/04/10 02:24:17;;;;;;;;;;;2.70;99.90;;;;;;5039989;28;19920;-78
2022/04/10 02:26:42;;;;;;;;;;;2.50;99.90;;;;;;5039203;28;19984;-78
2022/04/10 02:29:08;;;;;;;;;;;2.60;99.90;;;;;;5039878;28;19909;-77
2022/04/10 02:31:34;;;;;;;;;;;4.00;99.90;;;;;;5039828;28;20015;-77
2022/04/10 02:34:00;;;;;;;;;;;2.60;99.90;;;;;;5040573;28;19913;-77
2022/04/10 02:36:25;;;;;;;;;;;2.60;99.90;;;;;;5040621;28;20153;-77
2022/04/10 02:38:51;;;;;;;;;;;2.60;99.90;;;;;;5041224;28;19925;-77
2022/04/10 02:41:17;;;;;;;;;;;2.70;99.90;;;;;;5023520;28;19970;-77
2022/04/10 02:43:42;;;;;;;;;;;2.50;99.90;;;;;;5044042;28;19952;-78
2022/04/10 02:46:08;;;;;;;;;;;2.70;99.90;;;;;;5045931;28;19935;-78
2022/04/10 02:48:33;;;;;;;;;;;2.70;99.90;;;;;;5045293;28;19956;-79
2022/04/10 02:50:59;;;;;;;;;;;2.60;99.90;;;;;;5045733;28;20232;-79
2022/04/10 02:53:25;;;;;;;;;;;3.90;99.90;;;;;;5045153;28;19912;-77
2022/04/10 02:55:50;;;;;;;;;;;2.80;99.90;;;;;;5045116;28;19916;-79
2022/04/10 02:58:16;;;;;;;;;;;2.70;99.90;;;;;;5044876;28;19912;-80
2022/04/10 03:00:41;;;;;;;;;;;2.70;99.90;;;;;;5049006;28;19912;-77
2022/04/10 03:03:07;;;;;;;;;;;2.70;99.90;;;;;;5044862;28;19909;-78
2022/04/10 03:05:33;;;;;;;;;;;2.70;99.90;;;;;;5043967;28;19908;-78
2022/04/10 03:07:58;;;;;;;;;;;2.70;99.90;;;;;;5044447;28;19909;-79
2022/04/10 03:10:24;;;;;;;;;;;2.70;99.90;;;;;;5044465;28;20119;-78
2022/04/10 03:12:49;;;;;;;;;;;2.70;99.90;;;;;;5044340;28;20007;-78
2022/04/10 03:15:15;;;;;;;;;;;2.60;99.90;;;;;;5043944;28;20438;-78
2022/04/10 03:17:41;;;;;;;;;;;2.50;99.90;;;;;;5043671;28;19909;-77
2022/04/10 03:20:07;;;;;;;;;;;2.50;99.90;;;;;;5043097;28;20287;-79
2022/04/10 03:22:32;;;;;;;;;;;2.50;99.90;;;;;;5042894;28;19912;-78
2022/04/10 03:24:58;;;;;;;;;;;2.50;99.90;;;;;;5043349;28;19932;-79
2022/04/10 03:27:23;;;;;;;;;;;2.50;99.90;;;;;;5042992;28;19909;-77
2022/04/10 03:29:49;;;;;;;;;;;2.40;99.90;;;;;;5042790;28;20303;-79
2022/04/10 03:32:15;;;;;;;;;;;2.40;99.90;;;;;;5042857;28;19935;-78
2022/04/10 03:34:40;;;;;;;;;;;2.50;99.90;;;;;;5042485;28;20002;-78
2022/04/10 03:37:06;;;;;;;;;;;3.50;99.90;;;;;;5043325;28;19913;-79
2022/04/10 03:39:31;;;;;;;;;;;2.40;99.90;;;;;;5043745;28;19924;-78
2022/04/10 03:41:57;;;;;;;;;;;2.40;99.90;;;;;;5041937;28;20145;-79
2022/04/10 03:44:22;;;;;;;;;;;2.40;99.90;;;;;;5043037;28;20202;-78
2022/04/10 03:46:48;;;;;;;;;;;2.40;99.90;;;;;;5042850;28;19917;-78
2022/04/10 03:49:14;;;;;;;;;;;2.30;99.90;;;;;;5042847;28;19909;-78
2022/04/10 03:51:39;;;;;;;;;;;2.40;99.90;;;;;;5043428;28;19913;-78
2022/04/10 03:54:05;;;;;;;;;;;2.40;99.90;;;;;;5043145;28;20304;-78
2022/04/10 03:56:30;;;;;;;;;;;2.40;99.90;;;;;;5043054;28;19967;-78
2022/04/10 03:58:56;;;;;;;;;;;2.40;99.90;;;;;;5044715;28;19928;-80
2022/04/10 04:01:22;;;;;;;;;;;2.40;99.90;;;;;;5047810;28;19909;-78
2022/04/10 04:03:47;;;;;;;;;;;2.30;99.90;;;;;;5052369;28;20214;-78
2022/04/10 04:06:13;;;;;;;;;;;2.40;99.90;;;;;;5043654;28;20474;-78
2022/04/10 04:08:40;;;;;;;;;;;2.30;99.90;;;;;;5042195;28;19928;-78
2022/04/10 04:11:06;;;;;;;;;;;2.30;99.90;;;;;;5041945;28;20186;-78
2022/04/10 04:13:33;;;;;;;;;;;2.40;99.90;;;;;;5024023;28;20003;-78
2022/04/10 04:15:58;;;;;;;;;;;2.40;99.90;;;;;;5042670;28;20263;-79
2022/04/10 04:18:24;;;;;;;;;;;2.50;99.90;;;;;;5041263;28;20399;-79
2022/04/10 04:20:50;;;;;;;;;;;2.40;99.90;;;;;;5042085;28;19909;-78
2022/04/10 04:23:17;;;;;;;;;;;2.50;99.90;;;;;;5041886;28;20129;-79
2022/04/10 04:25:42;;;;;;;;;;;2.50;99.90;;;;;;5041922;28;20031;-79
2022/04/10 04:28:08;;;;;;;;;;;2.50;99.90;;;;;;5042163;28;20379;-79
2022/04/10 04:30:34;;;;;;;;;;;2.50;99.90;;;;;;5042598;28;19909;-78
2022/04/10 04:33:00;;;;;;;;;;;2.80;99.90;;;;;;5043435;28;19919;-79
2022/04/10 04:35:26;;;;;;;;;;;1.20;99.90;;;;;;5042865;28;19917;-79
2022/04/10 04:37:51;;;;;;;;;;;2.60;99.90;;;;;;5025121;28;20374;-78
2022/04/10 04:40:17;;;;;;;;;;;2.60;99.90;;;;;;5041799;28;19980;-78
2022/04/10 04:42:42;;;;;;;;;;;2.60;99.90;;;;;;5042579;28;19924;-78
2022/04/10 04:45:09;;;;;;;;;;;2.60;99.90;;;;;;5043001;28;19909;-79
2022/04/10 04:47:36;;;;;;;;;;;3.00;99.90;;;;;;5043892;28;19970;-78
2022/04/10 04:50:01;;;;;;;;;;;2.60;99.90;;;;;;5043280;28;20407;-79
2022/04/10 04:52:27;;;;;;;;;;;2.70;99.90;;;;;;5024738;28;19919;-79
2022/04/10 04:54:52;;;;;;;;;;;2.60;99.90;;;;;;5025636;28;20294;-78
2022/04/10 04:57:18;;;;;;;;;;;2.50;99.90;;;;;;5043040;28;19909;-78
2022/04/10 04:59:43;;;;;;;;;;;2.50;99.90;;;;;;5043876;28;20121;-78
2022/04/10 05:02:09;;;;;;;;;;;2.50;99.90;;;;;;5044207;28;20275;-78
2022/04/10 05:04:34;;;;;;;;;;;2.50;99.90;;;;;;5026659;28;20200;-80
2022/04/10 05:07:00;;;;;;;;;;;2.50;99.90;;;;;;5025865;28;19916;-78
2022/04/10 05:09:26;;;;;;;;;;;2.80;99.90;;;;;;5043385;28;20003;-79
2022/04/10 05:11:51;;;;;;;;;;;2.30;99.90;;;;;;5046926;28;20318;-79
2022/04/10 05:14:17;;;;;;;;;;;2.40;99.90;;;;;;5048614;28;20363;-78
2022/04/10 05:16:42;;;;;;;;;;;2.40;99.90;;;;;;5055537;28;19913;-81
2022/04/10 05:19:08;;;;;;;;;;;2.40;99.90;;;;;;5055253;28;19948;-78
2022/04/10 05:21:35;;;;;;;;;;;2.50;99.90;;;;;;5051835;28;20331;-79
2022/04/10 05:24:01;;;;;;;;;;;2.50;99.90;;;;;;5062485;28;19917;-79
2022/04/10 05:26:26;;;;;;;;;;;2.50;99.90;;;;;;5059303;28;19936;-78
2022/04/10 05:28:52;;;;;;;;;;;2.60;99.90;;;;;;5058851;28;19909;-78
2022/04/10 05:31:18;;;;;;;;;;;2.60;99.90;;;;;;5059768;28;19935;-78
2022/04/10 05:33:43;;;;;;;;;;;2.70;99.90;;;;;;5053188;28;20406;-78
2022/04/10 05:36:09;;;;;;;;;;;2.70;99.90;;;;;;5047548;28;19909;-79
2022/04/10 05:38:34;;;;;;;;;;;2.70;99.90;;;;;;5051130;28;19917;-78
2022/04/10 05:41:00;;;;;;;;;;;2.60;99.90;;;;;;5049569;28;20425;-78
2022/04/10 05:43:25;;;;;;;;;;;2.70;99.90;;;;;;5045288;28;19921;-78
2022/04/10 05:45:51;;;;;;;;;;;2.80;99.90;;;;;;5049932;28;19928;-78
2022/04/10 05:48:17;;;;;;;;;;;2.70;99.90;;;;;;5048279;28;20375;-77
2022/04/10 05:50:44;;;;;;;;;;;2.70;99.90;;;;;;5050858;28;19909;-78
2022/04/10 05:53:10;;;;;;;;;;;0.60;99.90;;;;;;5032718;28;19913;-79
2022/04/10 05:55:42;;;;;;;;;;;3.50;99.90;;;;;;5050159;28;19985;-76
2022/04/10 05:58:07;;;;;;;;;;;2.70;99.90;;;;;;5051068;28;19909;-77
2022/04/10 06:00:33;;;;;;;;;;;2.70;99.90;;;;;;5034602;28;19944;-79
2022/04/10 06:03:02;;;;;;;;;;;2.80;99.90;;;;;;5050267;28;19913;-79
2022/04/10 06:05:28;;;;;;;;;;;2.60;99.90;;;;;;5051657;28;20210;-79
2022/04/10 06:07:55;;;;;;;;;;;2.70;99.90;;;;;;5052777;28;19908;-79
2022/04/10 06:10:21;;;;;;;;;;;2.70;99.90;;;;;;5050606;28;19909;-78
2022/04/10 06:12:47;;;;;;;;;;;2.80;99.90;;;;;;5048809;28;20053;-78
2022/04/10 06:15:12;;;;;;;;;;;2.80;99.90;;;;;;5032051;28;19913;-79
2022/04/10 06:17:39;;;;;;;;;;;2.80;99.90;;;;;;5053238;28;20379;-78
2022/04/10 06:20:10;;;;;;;;;;;3.00;99.90;;;;;;5059863;28;19917;-78
2022/04/10 06:22:36;;;;;;;;;;;2.90;99.90;;;;;;5058354;28;19993;-78
2022/04/10 06:25:01;;;;;;;;;;;2.90;99.90;;;;;;5056061;28;20000;-77
2022/04/10 06:27:27;;;;;;;;;;;4.60;99.90;;;;;;5052460;28;20409;-78
2022/04/10 06:29:52;;;;;;;;;;;2.80;99.90;;;;;;5056140;28;20458;-77
2022/04/10 06:32:18;;;;;;;;;;;2.80;99.90;;;;;;5053326;28;19951;-78
2022/04/10 06:34:44;;;;;;;;;;;2.80;99.90;;;;;;5057446;28;20596;-78
2022/04/10 06:37:09;;;;;;;;;;;2.80;99.90;;;;;;5053080;28;19988;-78
2022/04/10 06:39:35;;;;;;;;;;;2.80;99.90;;;;;;5053604;28;19916;-78
2022/04/10 06:42:01;;;;;;;;;;;2.90;99.90;;;;;;5057452;28;19921;-77
2022/04/10 06:44:26;;;;;;;;;;;3.00;99.90;;;;;;5040629;28;19916;-79
2022/04/10 06:46:52;;;;;;;;;;;3.10;99.90;;;;;;5062243;28;19920;-79
2022/04/10 06:49:19;;;;;;;;;;;3.20;99.90;;;;;;5064860;28;19916;-79
2022/04/10 06:51:44;;;;;;;;;;;3.30;99.90;;;;;;5060347;28;20002;-78
2022/04/10 06:54:10;;;;;;;;;;;3.20;99.90;;;;;;5064909;28;19909;-78
2022/04/10 06:56:36;;;;;;;;;;;3.20;99.90;;;;;;5067711;28;19912;-77
2022/04/10 06:59:01;;;;;;;;;;;3.00;99.90;;;;;;5057499;28;20232;-78
2022/04/10 07:01:27;;;;;;;;;;;3.00;99.90;;;;;;5058575;28;19974;-78
2022/04/10 07:03:52;;;;;;;;;;;2.90;99.90;;;;;;5052325;28;19912;-78
2022/04/10 07:06:18;;;;;;;;;;;2.90;99.90;;;;;;5056429;28;19913;-77
2022/04/10 07:08:43;;;;;;;;;;;2.90;99.90;;;;;;5047838;28;19920;-76
2022/04/10 07:11:09;;;;;;;;;;;3.00;99.90;;;;;;5056048;28;19923;-76
2022/04/10 07:13:37;;;;;;;;;;;3.00;99.90;;;;;;5058771;28;19909;-79
2022/04/10 07:16:03;;;;;;;;;;;3.10;99.90;;;;;;5049002;28;19909;-77
2022/04/10 07:18:29;;;;;;;;;;;3.10;99.90;;;;;;5046648;28;20091;-78
2022/04/10 07:20:54;;;;;;;;;;;3.10;99.90;;;;;;5028626;28;20130;-77
2022/04/10 07:26:08;;;;;;;;;;;3.20;99.90;;;;;;5049830;28;20433;-77
2022/04/10 07:28:37;;;;;;;;;;;3.30;99.90;;;;;;5047898;28;19909;-76
2022/04/10 07:31:07;;;;;;;;;;;3.30;99.90;;;;;;5036632;28;19936;-78
2022/04/10 07:33:33;;;;;;;;;;;3.40;99.90;;;;;;5030494;28;19912;-77
2022/04/10 07:35:58;;;;;;;;;;;3.40;99.90;;;;;;5048206;28;19959;-78
2022/04/10 07:38:24;;;;;;;;;;;3.50;99.90;;;;;;5045963;28;20272;-77
2022/04/10 07:40:49;;;;;;;;;;;3.50;99.90;;;;;;5046869;28;20307;-77
2022/04/10 07:43:16;;;;;;;;;;;3.60;99.90;;;;;;5056288;28;19986;-78
2022/04/10 07:48:26;;;;;;;;;;;3.80;99.90;;;;;;5046466;28;20164;-78
2022/04/10 07:50:51;;;;;;;;;;;3.70;99.90;;;;;;5044682;28;20201;-77
2022/04/10 07:53:17;;;;;;;;;;;3.80;99.90;;;;;;5045953;28;19954;-78
2022/04/10 07:55:43;;;;;;;;;;;3.80;99.90;;;;;;5049001;28;19916;-77
2022/04/10 07:58:08;;;;;;;;;;;3.70;99.90;;;;;;5032467;28;20216;-77
2022/04/10 08:00:34;;;;;;;;;;;3.70;99.90;;;;;;5048356;28;19908;-77
2022/04/10 08:02:59;;;;;;;;;;;3.70;99.90;;;;;;5051784;28;19913;-77
2022/04/10 08:05:25;;;;;;;;;;;3.80;99.90;;;;;;5052193;28;19971;-78
2022/04/10 08:07:51;;;;;;;;;;;4.00;99.90;;;;;;5053801;28;20445;-77
2022/04/10 08:10:17;;;;;;;;;;;4.00;99.90;;;;;;5053353;28;20409;-78
2022/04/10 08:12:43;;;;;;;;;;;4.10;99.90;;;;;;5046075;28;19963;-78
2022/04/10 08:15:09;;;;;;;;;;;4.00;99.90;;;;;;5048090;28;20019;-77
2022/04/10 08:17:35;;;;;;;;;;;4.10;99.90;;;;;;5056104;28;19959;-78
2022/04/10 08:20:04;;;;;;;;;;;4.20;99.90;;;;;;5050234;28;19916;-78
2022/04/10 08:22:30;;;;;;;;;;;4.20;99.90;;;;;;5048013;28;19973;-78
2022/04/10 08:25:00;;;;;;;;;;;4.30;99.90;;;;;;5053781;28;20244;-77
2022/04/10 08:27:27;;;;;;;;;;;4.20;99.90;;;;;;5047824;28;20130;-78
2022/04/10 08:29:53;;;;;;;;;;;4.20;99.90;;;;;;5049974;28;19916;-77
2022/04/10 08:32:18;;;;;;;;;;;4.20;99.90;;;;;;5052576;28;20307;-76
2022/04/10 08:34:44;;;;;;;;;;;4.20;99.90;;;;;;5051697;28;19912;-77
2022/04/10 08:37:09;;;;;;;;;;;4.10;99.90;;;;;;5054557;28;20560;-78
2022/04/10 08:39:35;;;;;;;;;;;4.40;99.90;;;;;;5061716;28;19913;-78
2022/04/10 08:42:15;;;;;;;;;;;4.20;99.90;;;;;;5055762;28;20021;-77
2022/04/10 08:44:40;;;;;;;;;;;4.30;99.90;;;;;;5037784;28;20149;-78
2022/04/10 08:47:11;;;;;;;;;;;4.40;99.90;;;;;;5062585;28;19968;-75
2022/04/10 08:49:38;;;;;;;;;;;4.30;99.90;;;;;;5039605;28;19931;-77
2022/04/10 08:52:04;;;;;;;;;;;4.20;99.90;;;;;;5054628;28;19919;-76
2022/04/10 08:54:29;;;;;;;;;;;4.10;99.90;;;;;;5048605;28;19912;-76
2022/04/10 08:56:57;;;;;;;;;;;4.20;99.90;;;;;;5052040;28;20007;-80
2022/04/10 08:59:22;;;;;;;;;;;4.30;99.90;;;;;;5056002;28;19917;-80
2022/04/10 09:01:51;;;;;;;;;;;4.40;99.90;;;;;;5049107;28;20307;-77
2022/04/10 09:04:17;;;;;;;;;;;4.40;99.90;;;;;;5049207;28;19915;-79
2022/04/10 09:06:55;;;;;;;;;;;4.50;99.90;;;;;;5034916;28;19917;-83
2022/04/10 09:09:20;;;;;;;;;;;4.60;99.90;;;;;;5057077;28;20140;-76
2022/04/10 09:11:46;;;;;;;;;;;4.70;99.90;;;;;;5056016;28;19909;-76
2022/04/10 09:14:19;;;;;;;;;;;4.70;99.90;;;;;;5053581;28;20450;-79
2022/04/10 09:16:44;;;;;;;;;;;4.60;99.90;;;;;;5055396;28;20414;-75
2022/04/10 09:19:10;;;;;;;;;;;4.50;99.90;;;;;;5050206;28;19921;-76
2022/04/10 09:21:38;;;;;;;;;;;4.70;99.90;;;;;;5060441;28;19909;-79
2022/04/10 09:24:08;;;;;;;;;;;4.80;99.90;;;;;;5039386;28;19909;-79
2022/04/10 09:26:45;;;;;;;;;;;5.00;99.90;;;;;;5055536;28;19915;-80
2022/04/10 09:29:11;;;;;;;;;;;4.90;99.90;;;;;;5054479;28;20107;-78
2022/04/10 09:31:37;;;;;;;;;;;4.20;99.90;;;;;;5024965;28;19909;-77
2022/04/10 09:34:07;;;;;;;;;;;4.40;99.90;;;;;;5049440;28;20359;-80
2022/04/10 09:36:34;;;;;;;;;;;4.00;99.90;;;;;;5041536;28;19917;-77
2022/04/10 09:39:00;;;;;;;;;;;4.40;99.90;;;;;;5043644;28;20172;-79
2022/04/10 09:41:26;;;;;;;;;;;4.60;99.90;;;;;;5026068;28;19999;-77
2022/04/10 09:43:51;;;;;;;;;;;4.50;99.90;;;;;;5043486;28;20637;-77
2022/04/10 09:46:18;;;;;;;;;;;4.60;99.90;;;;;;5045596;28;19970;-79
2022/04/10 09:48:45;;;;;;;;;;;4.80;99.90;;;;;;5044591;28;20536;-80
2022/04/10 09:51:11;;;;;;;;;;;4.10;99.90;;;;;;5047284;28;20563;-79
2022/04/10 09:53:37;;;;;;;;;;;5.00;99.90;;;;;;5015162;28;19992;-78
2022/04/10 09:56:04;;;;;;;;;;;5.50;99.90;;;;;;5051386;28;20449;-81
2022/04/10 09:58:30;;;;;;;;;;;5.70;98.30;;;;;;5030346;28;19924;-78
2022/04/10 10:00:56;;;;;;;;;;;2.80;98.30;;;;;;5049660;28;19909;-77
2022/04/10 10:03:23;;;;;;;;;;;5.80;98.30;;;;;;5046120;28;19948;-79
2022/04/10 10:05:49;;;;;;;;;;;6.20;97.80;;;;;;5047951;28;19952;-77
2022/04/10 10:08:16;;;;;;;;;;;6.20;97.50;;;;;;5047162;28;19908;-78
2022/04/10 10:10:42;;;;;;;;;;;6.40;97.30;;;;;;5047673;28;20985;-76
2022/04/10 10:13:08;;;;;;;;;;;7.30;97.00;;;;;;5046724;28;19954;-77
2022/04/10 10:15:34;;;;;;;;;;;6.40;96.20;;;;;;5047854;28;19975;-79
2022/04/10 10:18:04;;;;;;;;;;;5.80;98.00;;;;;;5048335;28;19912;-80
2022/04/10 10:20:31;;;;;;;;;;;6.10;97.40;;;;;;5049981;28;19967;-79
2022/04/10 10:23:00;;;;;;;;;;;6.10;97.10;;;;;;5049602;28;19916;-77
2022/04/10 10:25:40;;;;;;;;;;;6.20;97.30;;;;;;5048401;28;20495;-77
2022/04/10 10:28:24;;;;;;;;;;;6.60;96.70;;;;;;5049995;28;20471;-77
2022/04/10 10:31:08;;;;;;;;;;;5.40;95.90;;;;;;5049211;28;19970;-76
2022/04/10 10:33:36;;;;;;;;;;;7.20;95.30;;;;;;5036572;28;19909;-77
2022/04/10 10:36:02;;;;;;;;;;;7.60;95.00;;;;;;5058366;28;19924;-78
2022/04/10 10:38:30;;;;;;;;;;;7.60;94.40;;;;;;5057654;28;20298;-77
2022/04/10 10:41:14;;;;;;;;;;;7.60;94.20;;;;;;5055727;28;19959;-78
2022/04/10 10:43:39;;;;;;;;;;;7.50;93.60;;;;;;5050391;28;19921;-79
2022/04/10 10:46:36;;;;;;;;;;;7.60;93.80;;;;;;5049565;28;19916;-77
2022/04/10 10:49:18;;;;;;;;;;;7.30;93.40;;;;;;4952431;29;19911;-80
2022/04/10 10:51:44;;;;;;;;;;;7.00;93.70;;;;;;4952229;29;19910;-79
2022/04/10 10:54:21;;;;;;;;;;;6.80;94.50;;;;;;4947783;29;19914;-78
2022/04/10 10:56:47;;;;;;;;;;;6.70;94.50;;;;;;4930899;29;19911;-78
2022/04/10 10:59:21;;;;;;;;;;;6.20;95.20;;;;;;4947089;29;20263;-77
2022/04/10 11:01:54;;;;;;;;;;;5.90;96.00;;;;;;4952367;29;19911;-75
2022/04/10 11:04:20;;;;;;;;;;;5.80;96.20;;;;;;4947571;28;19910;-76
2022/04/10 11:06:47;;;;;;;;;;;5.60;97.10;;;;;;4945923;29;19915;-79
2022/04/10 11:09:19;;;;;;;;;;;5.70;97.40;;;;;;4954765;29;19966;-76
2022/04/10 11:11:45;;;;;;;;;;;5.40;96.80;;;;;;4947879;29;19910;-75
2022/04/10 11:14:29;;;;;;;;;;;5.30;98.10;;;;;;4945879;29;19921;-75
2022/04/10 11:17:06;;;;;;;;;;;5.20;98.20;;;;;;4946777;29;19907;-75
2022/04/10 11:19:32;;;;;;;;;;;5.50;97.70;;;;;;4946649;29;19919;-74
2022/04/10 11:21:57;;;;;;;;;;;5.40;97.20;;;;;;4945947;28;19917;-76
2022/04/10 11:24:23;;;;;;;;;;;6.70;97.50;;;;;;4952588;28;19911;-76
2022/04/10 11:26:48;;;;;;;;;;;5.50;97.60;;;;;;5046175;28;19909;-77
2022/04/10 11:29:15;;;;;;;;;;;5.60;97.50;;;;;;5029841;28;20015;-77
2022/04/10 11:31:47;;;;;;;;;;;5.70;97.40;;;;;;5045768;28;19999;-79
2022/04/10 11:34:20;;;;;;;;;;;5.90;96.10;;;;;;5046931;28;20399;-77
2022/04/10 11:36:54;;;;;;;;;;;6.10;95.00;;;;;;5050169;28;19952;-78
2022/04/10 11:39:33;;;;;;;;;;;6.10;94.60;;;;;;5048628;28;19956;-78
2022/04/10 11:42:03;;;;;;;;;;;6.10;94.50;;;;;;5049405;28;19917;-78
2022/04/10 11:44:29;;;;;;;;;;;6.10;94.00;;;;;;5053424;28;19944;-77
2022/04/10 11:46:55;;;;;;;;;;;6.20;94.20;;;;;;5054073;28;19917;-78
2022/04/10 11:49:21;;;;;;;;;;;6.30;93.70;;;;;;5040001;28;19915;-78
2022/04/10 11:51:50;;;;;;;;;;;6.40;93.30;;;;;;5038772;28;20572;-77
2022/04/10 11:54:33;;;;;;;;;;;7.60;92.20;;;;;;5054206;28;20429;-78
2022/04/10 11:57:00;;;;;;;;;;;6.60;92.70;;;;;;5037257;28;19912;-81
2022/04/10 11:59:33;;;;;;;;;;;6.60;92.00;;;;;;5057555;28;19924;-77
2022/04/10 12:01:59;;;;;;;;;;;6.60;91.70;;;;;;5035939;28;20463;-77
2022/04/10 12:04:25;;;;;;;;;;;6.40;91.30;;;;;;5051957;28;19912;-79
2022/04/10 12:06:50;;;;;;;;;;;6.20;92.10;;;;;;5051794;28;19921;-78
2022/04/10 12:09:16;;;;;;;;;;;5.90;92.60;;;;;;5051966;28;20096;-80
2022/04/10 12:11:42;;;;;;;;;;;5.90;93.30;;;;;;5048797;28;19915;-78
2022/04/10 12:14:18;;;;;;;;;;;6.00;93.10;;;;;;5049119;28;19931;-77
2022/04/10 12:16:43;;;;;;;;;;;5.60;94.20;;;;;;5047192;28;19952;-78
2022/04/10 12:19:09;;;;;;;;;;;5.70;93.90;;;;;;5049053;28;19963;-78
2022/04/10 12:21:35;;;;;;;;;;;5.80;94.30;;;;;;5050503;28;19909;-78
2022/04/10 12:24:03;;;;;;;;;;;5.60;94.00;;;;;;5051969;28;19916;-78
2022/04/10 12:26:28;;;;;;;;;;;5.50;95.10;;;;;;5034182;28;19916;-78
2022/04/10 12:28:54;;;;;;;;;;;5.30;96.10;;;;;;5053035;28;19909;-78
2022/04/10 12:31:22;;;;;;;;;;;5.20;96.10;;;;;;5047232;28;20662;-78
2022/04/10 12:33:47;;;;;;;;;;;5.20;96.40;;;;;;5046217;28;19912;-77
2022/04/10 12:36:17;;;;;;;;;;;5.40;96.50;;;;;;5027367;28;19913;-77
2022/04/10 12:38:43;;;;;;;;;;;5.40;95.90;;;;;;5044285;28;20414;-76
2022/04/10 12:41:08;;;;;;;;;;;5.60;95.80;;;;;;5042055;28;19931;-76
2022/04/10 12:43:34;;;;;;;;;;;5.90;95.20;;;;;;5023017;28;20583;-76
2022/04/10 12:46:10;;;;;;;;;;;6.20;94.40;;;;;;5044639;28;19915;-79
2022/04/10 12:48:37;;;;;;;;;;;6.60;94.20;;;;;;5046265;28;20027;-79
2022/04/10 12:51:09;;;;;;;;;;;6.80;93.80;;;;;;5046501;28;20567;-79
2022/04/10 12:53:35;;;;;;;;;;;7.20;93.50;;;;;;5044406;28;19912;-79
2022/04/10 12:56:01;;;;;;;;;;;7.50;92.30;;;;;;5048682;28;20614;-78
2022/04/10 12:58:29;;;;;;;;;;;6.00;90.10;;;;;;5047505;28;19947;-78
2022/04/10 13:00:56;;;;;;;;;;;7.90;90.70;;;;;;5051716;28;19905;-79
2022/04/10 13:03:22;;;;;;;;;;;8.00;90.70;;;;;;5032743;28;20490;-78
2022/04/10 13:05:57;;;;;;;;;;;7.60;89.40;;;;;;5049819;28;19912;-78
2022/04/10 13:08:24;;;;;;;;;;;7.80;89.50;;;;;;5048397;28;19912;-78
2022/04/10 13:10:50;;;;;;;;;;;7.90;90.00;;;;;;5030148;28;19909;-78
2022/04/10 13:13:16;;;;;;;;;;;7.60;89.80;;;;;;5051985;28;19959;-78
2022/04/10 13:15:41;;;;;;;;;;;7.50;90.40;;;;;;5055001;28;19916;-78
2022/04/10 13:18:07;;;;;;;;;;;7.50;90.20;;;;;;5059059;28;19924;-78
2022/04/10 13:20:39;;;;;;;;;;;7.70;91.00;;;;;;5056375;28;19909;-78
2022/04/10 13:23:08;;;;;;;;;;;8.00;89.50;;;;;;5056751;28;19912;-78
2022/04/10 13:25:36;;;;;;;;;;;8.40;88.30;;;;;;5052013;28;19913;-78
2022/04/10 13:28:03;;;;;;;;;;;8.70;87.80;;;;;;5054634;28;20346;-77
2022/04/10 13:30:29;;;;;;;;;;;8.60;84.80;;;;;;5052128;28;19908;-78
2022/04/10 13:32:56;;;;;;;;;;;8.30;86.40;;;;;;5047432;28;19909;-76
2022/04/10 13:35:23;;;;;;;;;;;6.70;85.70;;;;;;5053346;28;19909;-77
2022/04/10 13:37:48;;;;;;;;;;;8.70;85.20;;;;;;5027318;28;20562;-76
2022/04/10 13:40:15;;;;;;;;;;;8.70;84.30;;;;;;5033567;28;19912;-76
2022/04/10 13:42:48;;;;;;;;;;;8.80;83.80;;;;;;5036539;28;19925;-78
2022/04/10 13:45:14;;;;;;;;;;;8.90;84.90;;;;;;5028888;28;19920;-79
2022/04/10 13:47:40;;;;;;;;;;;8.80;84.50;;;;;;5028006;28;19909;-76
2022/04/10 13:50:07;;;;;;;;;;;8.60;85.20;;;;;;5011148;28;19909;-77
2022/04/10 13:52:34;;;;;;;;;;;8.10;85.10;;;;;;5028541;28;19951;-77
2022/04/10 13:55:00;;;;;;;;;;;7.90;87.10;;;;;;5008996;28;19909;-77
2022/04/10 13:57:25;;;;;;;;;;;7.50;89.20;;;;;;5009928;28;19924;-78
2022/04/10 13:59:51;;;;;;;;;;;7.30;90.80;;;;;;5027399;28;20023;-77
2022/04/10 14:02:17;;;;;;;;;;;7.10;91.20;;;;;;5027070;28;20603;-76
2022/04/10 14:04:42;;;;;;;;;;;7.00;91.20;;;;;;5027669;28;19905;-77
2022/04/10 14:07:08;;;;;;;;;;;7.00;91.70;;;;;;5010253;28;19917;-76
2022/04/10 14:09:34;;;;;;;;;;;6.90;92.00;;;;;;5028320;28;19909;-76
2022/04/10 14:12:00;;;;;;;;;;;6.70;92.80;;;;;;5027857;28;19908;-77
2022/04/10 14:14:26;;;;;;;;;;;6.70;92.80;;;;;;5027599;28;19905;-77
2022/04/10 14:16:51;;;;;;;;;;;6.80;93.00;;;;;;5030910;28;19917;-77
2022/04/10 14:19:17;;;;;;;;;;;6.70;92.60;;;;;;5032720;28;20479;-76
2022/04/10 14:21:43;;;;;;;;;;;6.60;92.50;;;;;;5030101;28;19909;-76
2022/04/10 14:24:08;;;;;;;;;;;6.90;92.90;;;;;;5029017;28;19971;-76
2022/04/10 14:26:34;;;;;;;;;;;7.30;93.10;;;;;;5025317;28;20407;-76
2022/04/10 14:28:59;;;;;;;;;;;7.70;92.60;;;;;;5027065;28;19944;-77
2022/04/10 14:31:25;;;;;;;;;;;8.30;91.40;;;;;;5026498;28;19920;-77
2022/04/10 14:33:51;;;;;;;;;;;8.80;90.10;;;;;;5025992;28;19909;-78
2022/04/10 14:36:17;;;;;;;;;;;9.10;89.70;;;;;;5025675;28;19909;-74